Pagina principale
METAR-TAF:

METAR-TAF

Aeroporti :

Győr, Ungheria

Aeroporto di Győr-Pér

latitudine: 47-37-28N, longitudine: 017-48-49E, altezza: 129 m

Osservazione

Il bollettino è stato emesso 52 minuti fa, alle 19:45 UTC
Vento 9 kt da ovest/nord-ovest
Temperature 17°C
Umidità 63%
Pressione 1006 hPa
Visibilità 10 km o più
nessuna nube inferiore a 1500 m e nessun cumulonembo

METAR: LHPR 251945Z AUTO 30009KT CAVOK 17/10 Q1006 RMK BLU

Ora: 22:37 (20:37 UTC)

Previsione

Il bollettino è stato emesso 3 ore e 22 minuti fa, alle 17:15 UTC
Previsione valida dal 25 alle 18 UTC al 26 alle 03 UTC
Vento 15 kt da ovest/nord-ovest
Visibilità 10 km o più
nessuna nube inferiore a 1500 m e nessun cumulonembo
Evoluzione graduale
dal 25 alle 18 UTC al 25 alle 21 UTC
Vento 8 kt da ovest

TAF: LHPR 251715Z 2518/2603 30015KT CAVOK BECMG 2518/2521 28008KT

Osservazioni e previsioni meteorologiche di più di 4000 aeroporti (messaggi METAR e TAF).

Le stazioni disponibili sono rappresentate dai dischi gialli e rossi sulla carta.

Puntare il mouse per vedere il nome della stazione.

Clicca sopra per visualizzare le osservazioni e previsioni meteorologiche.

Per cambiare la mappa : fare clic sui pulsanti verdi con una croce nera per ingrandire, il pulsante verde con un trattino per diminuire, o sulla freccia verde per le mappe adiacenti.


METAR-TAF: